Portada
METAR-TAF:

METAR-TAF

Aeroports :

Changsha, Xina

latitud: 28-11N, longitud: 113-13E, altitud: 66 m

Observació

L'informe es va fer fa 44 minuts, a les 13:00 UTC
Vent 6 kt del Sud
Temperatura 27°C
Humitat 89%
Pressió 1007 hPa
Visibilitat 10 km o més
Núvols disperses a una alçada de 1400 ft

METAR: ZGHA 031300Z 18003MPS 9999 SCT014 27/25 Q1007 NOSIG

Hora: 21:44 (13:44 UTC)

Pronòstic

L'informe es va fer fa 4 hores i 40 minuts, a les 09:04 UTC
Pronòstic vàlid del 03 a les 12 UTC al 04 a les 12 UTC
Vent 8 kt del Nord/Nord-Oest
Visibilitat: 6000 m
Cel ennuvolat a una alçada de 1100 ft
Cel cobert a una alçada de 5000 ft
pluja

TAF: ZGHA 030904Z 0312/0412 33004MPS 6000 -RA BKN011 OVC050 TX33/0407Z TN26/0322Z

Observacions i pronòstics meteorològics de més de 4000 aeroports (METAR i TAF).

Les estacions disponibles són els punts grocs i vermells al mapa.

Posi el ratolí al punt desitjat per veure el nom de l'estació.

Feu clic per veure les observacions i els pronòstics meteorològics.

Per canviar el mapa: feu clic els botons verds amb una creu de color negre per apropar; al botó verd amb un guió per allunyar la imatge; o en les fletxes verdes per a mapes adjacents.


METAR-TAF: